createdAt,value
2018-03-04T00:01:57.376Z,2.30
2018-03-04T00:04:29.617Z,2.40
2018-03-04T00:07:00.416Z,2.30
2018-03-04T00:09:31.717Z,2.30
2018-03-04T00:12:01.837Z,2.30
2018-03-04T00:14:31.580Z,2.30
2018-03-04T00:17:03.490Z,2.40
2018-03-04T00:19:34.086Z,2.20
2018-03-04T00:22:04.083Z,2.20
2018-03-04T00:24:33.497Z,2.20
2018-03-04T00:27:07.349Z,2.30
2018-03-04T00:29:37.754Z,2.10
2018-03-04T00:32:08.304Z,2.20
2018-03-04T00:34:38.441Z,2.30
2018-03-04T00:37:09.781Z,2.30
2018-03-04T00:39:40.381Z,2.40
2018-03-04T00:42:11.578Z,2.50
2018-03-04T00:44:42.704Z,2.40
2018-03-04T00:50:27.579Z,2.40
2018-03-04T00:53:03.306Z,2.40
2018-03-04T00:55:52.549Z,2.30
2018-03-04T00:58:21.984Z,2.30
2018-03-04T01:00:58.303Z,2.40
2018-03-04T01:03:47.147Z,2.30
2018-03-04T01:06:17.727Z,2.30
2018-03-04T01:09:02.342Z,2.30
2018-03-04T01:11:33.687Z,2.30
2018-03-04T01:14:03.485Z,2.30
2018-03-04T01:16:35.316Z,2.20
2018-03-04T01:19:10.594Z,2.20
2018-03-04T01:24:39.162Z,2.20
2018-03-04T01:27:48.381Z,2.10
2018-03-04T01:30:35.872Z,2.00
2018-03-04T01:33:26.320Z,2.00
2018-03-04T01:35:56.875Z,2.10
2018-03-04T01:38:28.182Z,2.10
2018-03-04T01:40:59.167Z,2.10
2018-03-04T01:43:29.366Z,2.10
2018-03-04T01:46:09.554Z,2.10
2018-03-04T01:48:40.367Z,2.20
2018-03-04T01:51:10.008Z,2.20
2018-03-04T01:53:39.694Z,2.20
2018-03-04T01:56:21.533Z,2.20
2018-03-04T01:58:55.813Z,2.20
2018-03-04T02:01:46.946Z,2.20
2018-03-04T02:04:16.526Z,2.20
2018-03-04T02:06:46.263Z,2.20
2018-03-04T02:09:17.081Z,2.30
2018-03-04T02:12:17.952Z,2.30
2018-03-04T02:14:58.266Z,2.30
2018-03-04T02:17:46.231Z,2.40
2018-03-04T02:20:16.206Z,2.40
2018-03-04T02:22:49.835Z,2.40
2018-03-04T02:25:24.403Z,2.40
2018-03-04T02:28:00.810Z,2.40
2018-03-04T02:30:30.932Z,2.40
2018-03-04T02:33:14.769Z,2.40
2018-03-04T02:36:01.794Z,2.40
2018-03-04T02:38:44.305Z,2.40
2018-03-04T02:41:14.616Z,2.40
2018-03-04T02:43:44.763Z,2.50
2018-03-04T02:46:15.666Z,2.40
2018-03-04T02:48:46.412Z,2.50
2018-03-04T02:51:17.847Z,2.50
2018-03-04T02:53:49.393Z,2.60
2018-03-04T02:56:21.770Z,2.50
2018-03-04T02:58:52.502Z,2.50
2018-03-04T03:01:22.994Z,2.60
2018-03-04T03:03:56.351Z,2.50
2018-03-04T03:11:19.413Z,2.60
2018-03-04T03:13:50.716Z,2.60
2018-03-04T03:16:22.847Z,2.60
2018-03-04T03:18:52.934Z,2.50
2018-03-04T03:21:24.661Z,2.60
2018-03-04T03:23:57.838Z,2.60
2018-03-04T03:26:33.972Z,2.60
2018-03-04T03:29:21.117Z,2.50
2018-03-04T03:32:19.101Z,2.60
2018-03-04T03:35:20.311Z,2.60
2018-03-04T03:37:55.417Z,2.60
2018-03-04T03:40:26.326Z,2.50
2018-03-04T03:42:55.887Z,2.60
2018-03-04T03:45:25.570Z,2.60
2018-03-04T03:47:55.395Z,2.60
2018-03-04T03:50:26.680Z,2.60
2018-03-04T03:52:57.034Z,2.60
2018-03-04T03:55:27.234Z,2.60
2018-03-04T03:57:57.820Z,2.60
2018-03-04T04:00:37.290Z,2.70
2018-03-04T04:03:07.931Z,2.70
2018-03-04T04:05:45.064Z,2.70
2018-03-04T04:08:19.429Z,2.80
2018-03-04T04:11:11.811Z,2.70
2018-03-04T04:13:42.547Z,2.70
2018-03-04T04:16:13.968Z,2.70
2018-03-04T04:18:45.756Z,2.70
2018-03-04T04:21:16.092Z,2.70
2018-03-04T04:23:46.898Z,2.70
2018-03-04T04:26:16.920Z,2.70
2018-03-04T04:28:50.926Z,2.80
2018-03-04T04:31:22.329Z,2.80
2018-03-04T04:33:53.479Z,2.80
2018-03-04T04:36:23.999Z,2.80
2018-03-04T04:38:54.351Z,2.80
2018-03-04T04:41:24.257Z,2.80
2018-03-04T04:43:54.745Z,2.80
2018-03-04T04:46:35.248Z,2.80
2018-03-04T04:49:09.038Z,2.80
2018-03-04T04:51:40.501Z,2.80
2018-03-04T04:54:10.610Z,2.80
2018-03-04T04:56:40.991Z,2.80
2018-03-04T04:59:13.124Z,2.80
2018-03-04T05:01:44.755Z,2.80
2018-03-04T05:04:17.555Z,2.70
2018-03-04T05:07:13.950Z,2.70
2018-03-04T05:09:55.914Z,2.70
2018-03-04T05:12:45.998Z,2.60
2018-03-04T05:15:15.513Z,2.60
2018-03-04T05:17:45.607Z,2.50
2018-03-04T05:20:15.157Z,2.40
2018-03-04T05:22:48.155Z,2.40
2018-03-04T05:25:17.594Z,2.40
2018-03-04T05:27:48.210Z,2.30
2018-03-04T05:30:17.795Z,2.30
2018-03-04T05:32:47.870Z,2.30
2018-03-04T05:35:21.855Z,2.30
2018-03-04T05:37:52.518Z,2.20
2018-03-04T05:40:21.885Z,2.20
2018-03-04T05:42:51.501Z,2.20
2018-03-04T05:45:27.512Z,2.20
2018-03-04T05:47:58.597Z,2.20
2018-03-04T05:50:55.559Z,2.10
2018-03-04T05:53:58.021Z,2.00
2018-03-04T05:56:54.266Z,2.10
2018-03-04T05:59:38.519Z,2.10
2018-03-04T06:02:08.565Z,2.10
2018-03-04T06:04:39.838Z,2.10
2018-03-04T06:07:09.271Z,2.00
2018-03-04T06:09:39.057Z,2.00
2018-03-04T06:12:08.506Z,2.10
2018-03-04T06:14:42.559Z,2.10
2018-03-04T06:17:12.448Z,2.00
2018-03-04T06:19:42.070Z,2.00
2018-03-04T06:22:11.445Z,2.10
2018-03-04T06:24:41.159Z,2.10
2018-03-04T06:27:12.251Z,2.10
2018-03-04T06:29:41.712Z,2.10
2018-03-04T06:32:11.018Z,2.10
2018-03-04T06:34:40.246Z,2.10
2018-03-04T06:37:09.742Z,2.10
2018-03-04T06:39:40.429Z,2.10
2018-03-04T06:42:09.873Z,2.10
2018-03-04T06:44:39.083Z,2.20
2018-03-04T06:47:08.794Z,2.20
2018-03-04T06:49:38.587Z,2.20
2018-03-04T06:52:07.957Z,2.30
2018-03-04T06:54:37.979Z,2.40
2018-03-04T06:57:08.563Z,2.40
2018-03-04T06:59:42.044Z,2.40
2018-03-04T07:02:11.499Z,2.50
2018-03-04T07:04:41.288Z,2.50
2018-03-04T07:07:11.662Z,2.60
2018-03-04T07:09:41.148Z,2.60
2018-03-04T07:12:10.598Z,2.70
2018-03-04T07:14:40.052Z,2.70
2018-03-04T07:17:11.028Z,2.80
2018-03-04T07:19:42.340Z,2.90
2018-03-04T07:22:11.857Z,2.90
2018-03-04T07:24:41.653Z,3.00
2018-03-04T07:27:12.542Z,3.10
2018-03-04T07:29:42.464Z,3.10
2018-03-04T07:32:12.081Z,3.20
2018-03-04T07:34:44.190Z,3.40
2018-03-04T07:37:14.687Z,3.40
2018-03-04T07:39:44.945Z,3.50
2018-03-04T07:42:15.009Z,3.40
2018-03-04T07:44:45.444Z,3.50
2018-03-04T07:47:15.328Z,3.50
2018-03-04T07:49:45.536Z,3.50
2018-03-04T07:52:16.186Z,3.60
2018-03-04T07:54:45.688Z,3.60
2018-03-04T07:57:15.409Z,3.70
2018-03-04T07:59:46.929Z,3.70
2018-03-04T08:02:17.252Z,3.90
2018-03-04T08:04:49.090Z,3.90
2018-03-04T08:07:22.848Z,3.90
2018-03-04T08:09:54.598Z,3.90
2018-03-04T08:12:25.422Z,4.00
2018-03-04T08:14:55.503Z,4.00
2018-03-04T08:17:27.183Z,3.90
2018-03-04T08:19:57.178Z,3.90
2018-03-04T08:22:29.966Z,3.80
2018-03-04T08:25:08.098Z,3.90
2018-03-04T08:28:40.515Z,4.00
2018-03-04T08:31:29.979Z,4.00
2018-03-04T08:34:00.060Z,4.00
2018-03-04T08:36:35.637Z,4.10
2018-03-04T08:39:07.915Z,4.10
2018-03-04T08:41:49.823Z,4.10
2018-03-04T08:44:21.576Z,4.10
2018-03-04T08:46:51.532Z,4.10
2018-03-04T08:49:21.431Z,4.20
2018-03-04T08:51:54.605Z,4.30
2018-03-04T08:54:27.124Z,4.40
2018-03-04T08:57:00.842Z,4.30
2018-03-04T08:59:32.536Z,4.40
2018-03-04T09:02:07.068Z,4.50
2018-03-04T09:04:46.170Z,4.60
2018-03-04T09:07:17.692Z,4.60
2018-03-04T09:09:47.638Z,4.70
2018-03-04T09:12:17.869Z,4.80
2018-03-04T09:14:49.763Z,5.00
2018-03-04T09:17:25.576Z,5.20
2018-03-04T09:19:56.131Z,5.20
2018-03-04T09:22:27.119Z,5.30
2018-03-04T09:24:58.179Z,5.30
2018-03-04T09:27:28.982Z,5.20
2018-03-04T09:29:59.459Z,5.20
2018-03-04T09:32:29.473Z,5.20
2018-03-04T09:35:00.288Z,5.30
2018-03-04T09:37:30.138Z,5.10
2018-03-04T09:40:12.117Z,5.20
2018-03-04T09:42:44.557Z,5.30
2018-03-04T09:45:14.268Z,5.30
2018-03-04T09:47:44.118Z,5.30
2018-03-04T09:50:17.228Z,5.60
2018-03-04T09:52:49.061Z,5.80
2018-03-04T09:55:19.685Z,6.10
2018-03-04T09:57:51.864Z,6.00
2018-03-04T10:00:24.059Z,6.10
2018-03-04T10:02:59.532Z,6.20
2018-03-04T10:05:34.385Z,6.20
2018-03-04T10:08:04.833Z,6.30
2018-03-04T10:10:38.165Z,6.80
2018-03-04T10:13:11.880Z,7.40
2018-03-04T10:15:50.110Z,7.90
2018-03-04T10:18:29.949Z,8.10
2018-03-04T10:21:04.324Z,7.70
2018-03-04T10:23:37.777Z,8.20
2018-03-04T10:26:21.386Z,8.20
2018-03-04T10:29:07.408Z,10.00
2018-03-04T10:31:38.114Z,10.90
2018-03-04T10:34:09.736Z,10.80
2018-03-04T10:36:40.312Z,11.10
2018-03-04T10:39:10.476Z,11.50
2018-03-04T10:41:42.461Z,10.20
2018-03-04T10:44:13.478Z,10.90
2018-03-04T10:46:47.588Z,12.20
2018-03-04T10:49:20.659Z,12.90
2018-03-04T10:51:53.774Z,13.50
2018-03-04T10:54:27.323Z,10.90
2018-03-04T10:57:00.211Z,10.50
2018-03-04T10:59:33.328Z,11.70
2018-03-04T11:02:05.837Z,11.70
2018-03-04T11:05:08.733Z,11.80
2018-03-04T11:07:47.565Z,11.80
2018-03-04T11:10:19.041Z,11.40
2018-03-04T11:12:52.446Z,12.20
2018-03-04T11:15:27.684Z,13.40
2018-03-04T11:18:02.229Z,14.30
2018-03-04T11:20:32.836Z,14.30
2018-03-04T11:23:06.290Z,14.50
2018-03-04T11:25:38.544Z,14.10
2018-03-04T11:28:08.977Z,13.30
2018-03-04T11:30:47.487Z,13.50
2018-03-04T11:33:20.935Z,14.10
2018-03-04T11:35:53.526Z,15.30
2018-03-04T11:38:30.514Z,14.80
2018-03-04T11:41:19.848Z,14.60
2018-03-04T11:43:57.648Z,15.90
2018-03-04T11:46:29.556Z,16.10
2018-03-04T11:49:02.594Z,15.60
2018-03-04T11:51:35.081Z,16.00
2018-03-04T11:54:08.325Z,16.40
2018-03-04T11:56:58.611Z,17.00
2018-03-04T11:59:44.552Z,17.00
2018-03-04T12:02:14.570Z,17.00
2018-03-04T12:05:15.487Z,15.40
2018-03-04T12:07:59.096Z,15.70
2018-03-04T12:10:29.375Z,15.20
2018-03-04T12:13:01.320Z,16.30
2018-03-04T12:15:32.103Z,16.30
2018-03-04T12:18:02.757Z,16.50
2018-03-04T12:20:33.966Z,16.50
2018-03-04T12:23:10.467Z,15.80
2018-03-04T12:25:41.792Z,16.40
2018-03-04T12:28:12.906Z,16.00
2018-03-04T12:30:43.753Z,16.00
2018-03-04T12:33:14.520Z,14.70
2018-03-04T12:35:47.258Z,14.70
2018-03-04T12:38:18.081Z,14.20
2018-03-04T12:40:49.072Z,15.20
2018-03-04T12:43:37.986Z,15.30
2018-03-04T12:46:19.177Z,16.00
2018-03-04T12:48:49.444Z,15.30
2018-03-04T12:51:19.368Z,15.10
2018-03-04T12:53:51.498Z,16.00
2018-03-04T12:56:25.843Z,15.90
2018-03-04T12:59:12.515Z,15.90
2018-03-04T13:01:45.039Z,16.00
2018-03-04T13:04:18.286Z,16.50
2018-03-04T13:06:48.108Z,16.50
2018-03-04T13:09:23.442Z,15.50
2018-03-04T13:11:57.282Z,16.00
2018-03-04T13:14:32.917Z,16.30
2018-03-04T13:17:02.986Z,16.30
2018-03-04T13:19:36.602Z,15.60
2018-03-04T13:22:08.122Z,15.30
2018-03-04T13:24:38.242Z,15.20
2018-03-04T13:27:08.302Z,14.60
2018-03-04T13:29:40.495Z,14.80
2018-03-04T13:32:10.583Z,14.70
2018-03-04T13:34:49.964Z,14.30
2018-03-04T13:37:19.460Z,13.80
2018-03-04T13:39:48.928Z,13.40
2018-03-04T13:42:19.439Z,12.70
2018-03-04T13:44:49.652Z,12.90
2018-03-04T13:47:21.592Z,12.50
2018-03-04T13:49:52.818Z,12.20
2018-03-04T13:52:22.666Z,12.10
2018-03-04T13:54:56.099Z,12.20
2018-03-04T13:57:27.793Z,12.40
2018-03-04T14:00:03.352Z,12.40
2018-03-04T14:02:35.505Z,12.40
2018-03-04T14:05:06.262Z,12.30
2018-03-04T14:07:38.630Z,12.10
2018-03-04T14:10:12.075Z,12.40
2018-03-04T14:12:46.206Z,12.40
2018-03-04T14:15:16.247Z,12.40
2018-03-04T14:17:48.343Z,12.80
2018-03-04T14:20:20.366Z,12.80
2018-03-04T14:22:54.080Z,12.60
2018-03-04T14:25:24.841Z,12.70
2018-03-04T14:28:20.672Z,12.00
2018-03-04T14:31:08.960Z,11.70
2018-03-04T14:33:42.998Z,11.80
2018-03-04T14:36:26.909Z,12.10
2018-03-04T14:45:09.674Z,11.60
2018-03-04T14:47:44.555Z,11.60
2018-03-04T14:50:34.954Z,11.50
2018-03-04T14:53:23.896Z,11.40
2018-03-04T14:55:55.464Z,11.40
2018-03-04T14:58:51.473Z,11.40
2018-03-04T15:01:53.687Z,11.40
2018-03-04T15:04:49.386Z,11.30
2018-03-04T15:07:27.527Z,11.20
2018-03-04T15:09:59.783Z,11.10
2018-03-04T15:12:37.610Z,11.10
2018-03-04T15:15:12.212Z,11.00
2018-03-04T15:17:44.981Z,11.10
2018-03-04T15:20:16.142Z,11.10
2018-03-04T15:22:48.302Z,11.10
2018-03-04T15:25:20.821Z,11.10
2018-03-04T15:27:55.554Z,11.00
2018-03-04T15:30:35.126Z,10.90
2018-03-04T15:33:08.574Z,10.90
2018-03-04T15:38:37.234Z,10.90
2018-03-04T15:41:20.150Z,10.80
2018-03-04T15:44:05.618Z,10.70
2018-03-04T15:46:50.094Z,10.70
2018-03-04T15:52:22.077Z,10.50
2018-03-04T15:55:48.506Z,10.50
2018-03-04T15:58:22.728Z,10.40
2018-03-04T16:00:53.866Z,10.50
2018-03-04T16:03:34.340Z,10.50
2018-03-04T16:06:12.007Z,10.50
2018-03-04T16:08:49.879Z,10.50
2018-03-04T16:11:28.551Z,10.40
2018-03-04T16:14:08.319Z,10.40
2018-03-04T16:16:41.166Z,10.40
2018-03-04T16:19:14.962Z,10.40
2018-03-04T16:22:00.109Z,10.40
2018-03-04T16:24:37.197Z,10.30
2018-03-04T16:27:32.082Z,10.30
2018-03-04T16:30:35.208Z,10.30
2018-03-04T16:36:52.798Z,10.20
2018-03-04T16:39:32.337Z,10.20
2018-03-04T16:46:23.918Z,10.10
2018-03-04T16:52:03.962Z,10.00
2018-03-04T16:54:38.738Z,10.00
2018-03-04T16:57:14.158Z,9.90
2018-03-04T16:59:47.415Z,9.90
2018-03-04T17:02:21.289Z,10.00
2018-03-04T17:05:00.217Z,9.90
2018-03-04T17:08:04.721Z,9.70
2018-03-04T17:10:38.090Z,9.50
2018-03-04T17:13:10.398Z,9.30
2018-03-04T17:15:44.856Z,9.20
2018-03-04T17:18:21.005Z,9.10
2018-03-04T17:21:05.364Z,9.10
2018-03-04T17:23:37.146Z,9.20
2018-03-04T17:26:13.904Z,9.30
2018-03-04T17:28:53.004Z,9.30
2018-03-04T17:31:31.447Z,9.30
2018-03-04T17:34:12.766Z,9.30
2018-03-04T17:36:46.778Z,9.40
2018-03-04T17:39:26.867Z,9.40
2018-03-04T17:42:07.278Z,9.40
2018-03-04T17:48:08.461Z,9.60
2018-03-04T17:50:40.479Z,9.60
2018-03-04T17:53:14.669Z,9.60
2018-03-04T17:55:51.731Z,9.60
2018-03-04T17:58:32.183Z,9.60
2018-03-04T18:01:06.706Z,9.70
2018-03-04T18:04:57.506Z,9.70
2018-03-04T18:07:41.359Z,9.50
2018-03-04T18:10:12.187Z,9.40
2018-03-04T18:12:57.161Z,9.50
2018-03-04T18:15:58.942Z,9.30
2018-03-04T18:18:43.095Z,9.30
2018-03-04T18:21:19.414Z,9.20
2018-03-04T18:23:53.906Z,9.20
2018-03-04T18:26:35.310Z,9.30
2018-03-04T18:29:08.396Z,9.30
2018-03-04T18:31:49.593Z,9.30
2018-03-04T19:17:06.284Z,9.10
2018-03-04T19:19:40.340Z,9.00
2018-03-04T19:22:11.077Z,9.00
2018-03-04T19:24:41.865Z,9.00
2018-03-04T19:27:15.299Z,9.00
2018-03-04T19:29:49.351Z,9.00
2018-03-04T19:32:20.564Z,9.10
2018-03-04T19:34:56.908Z,9.10
2018-03-04T19:37:38.447Z,9.00
2018-03-04T19:40:17.485Z,9.00
2018-03-04T19:42:54.831Z,8.90
2018-03-04T19:45:49.635Z,9.00
2018-03-04T19:48:57.757Z,9.00
2018-03-04T19:51:30.375Z,9.00
2018-03-04T19:54:02.058Z,9.10
2018-03-04T19:56:37.928Z,9.10
2018-03-04T19:59:11.308Z,9.10
2018-03-04T20:01:42.603Z,9.10
2018-03-04T20:04:15.762Z,9.10
2018-03-04T20:06:47.202Z,9.10
2018-03-04T20:09:25.761Z,9.10
2018-03-04T20:12:12.546Z,9.10
2018-03-04T20:14:43.825Z,9.10
2018-03-04T20:17:16.240Z,9.00
2018-03-04T20:19:48.054Z,9.00
2018-03-04T20:22:33.689Z,8.80
2018-03-04T20:25:04.661Z,8.90
2018-03-04T20:27:39.606Z,8.90
2018-03-04T20:30:15.749Z,8.90
2018-03-04T20:32:46.684Z,8.90
2018-03-04T20:35:17.504Z,8.90
2018-03-04T20:37:47.679Z,9.00
2018-03-04T20:40:18.431Z,8.90
2018-03-04T20:42:49.363Z,8.90
2018-03-04T20:45:26.298Z,8.80
2018-03-04T20:47:57.919Z,8.80
2018-03-04T20:50:29.935Z,8.70
2018-03-04T20:53:00.487Z,8.70
2018-03-04T20:55:34.221Z,8.80
2018-03-04T20:58:05.345Z,8.80
2018-03-04T21:00:36.196Z,8.90
2018-03-04T21:03:08.502Z,8.90
2018-03-04T21:05:40.310Z,8.90
2018-03-04T21:08:12.520Z,8.90
2018-03-04T21:10:44.782Z,8.80
2018-03-04T21:13:19.258Z,8.90
2018-03-04T21:16:03.825Z,9.00
2018-03-04T21:18:39.335Z,9.10
2018-03-04T21:21:20.400Z,9.10
2018-03-04T21:23:54.928Z,9.10
2018-03-04T21:26:27.967Z,9.10
2018-03-04T21:29:06.354Z,9.20
2018-03-04T21:31:40.423Z,9.20
2018-03-04T21:34:11.380Z,9.20
2018-03-04T21:36:41.751Z,9.30
2018-03-04T21:39:14.618Z,9.30
2018-03-04T21:41:45.419Z,9.30
2018-03-04T21:44:15.932Z,9.30
2018-03-04T21:46:47.738Z,9.40
2018-03-04T21:49:17.908Z,9.40
2018-03-04T21:51:49.345Z,9.40
2018-03-04T21:54:21.598Z,9.40
2018-03-04T21:56:57.531Z,9.40
2018-03-04T21:59:48.890Z,9.40
2018-03-04T22:02:45.344Z,9.40
2018-03-04T22:05:16.671Z,9.50
2018-03-04T22:07:50.113Z,9.60
2018-03-04T22:10:29.468Z,9.60
2018-03-04T22:13:02.318Z,9.60
2018-03-04T22:15:35.012Z,9.50
2018-03-04T22:18:06.293Z,9.50
2018-03-04T22:20:42.173Z,9.40
2018-03-04T22:23:13.134Z,9.50
2018-03-04T22:25:45.168Z,9.50
2018-03-04T22:28:17.357Z,9.50
2018-03-04T22:31:01.917Z,9.60
2018-03-04T22:33:34.450Z,9.60
2018-03-04T22:36:05.959Z,9.60
2018-03-04T22:38:38.140Z,9.60
2018-03-04T22:41:12.634Z,9.60
2018-03-04T22:43:42.913Z,9.60
2018-03-04T22:46:13.313Z,9.50
2018-03-04T22:48:44.079Z,9.40
2018-03-04T22:51:14.924Z,9.30
2018-03-04T22:53:47.257Z,9.30
2018-03-04T22:56:18.371Z,9.10
2018-03-04T22:58:49.492Z,8.80
2018-03-04T23:01:20.936Z,8.70
2018-03-04T23:03:56.476Z,8.70
2018-03-04T23:06:27.495Z,8.70
2018-03-04T23:09:05.003Z,8.70
2018-03-04T23:11:39.421Z,8.70
2018-03-04T23:14:09.981Z,8.70
2018-03-04T23:16:40.692Z,8.80
2018-03-04T23:19:11.558Z,8.80
2018-03-04T23:21:42.329Z,8.80
2018-03-04T23:24:25.269Z,8.80
2018-03-04T23:26:57.378Z,8.80
2018-03-04T23:29:28.568Z,8.80
2018-03-04T23:31:59.544Z,8.80
2018-03-04T23:34:30.046Z,8.80
2018-03-04T23:37:01.116Z,8.70
2018-03-04T23:39:36.031Z,8.60
2018-03-04T23:42:22.929Z,8.60
2018-03-04T23:44:59.955Z,8.60
2018-03-04T23:47:49.328Z,8.50
2018-03-04T23:50:26.677Z,8.50
2018-03-04T23:52:58.599Z,8.40
2018-03-04T23:55:29.225Z,8.40
2018-03-04T23:58:00.306Z,8.30
